createdAt,value
2018-01-18T00:00:13.049Z,0.00
2018-01-18T00:01:13.085Z,0.00
2018-01-18T00:02:13.061Z,0.00
2018-01-18T00:03:13.117Z,0.00
2018-01-18T00:04:13.051Z,0.00
2018-01-18T00:05:13.096Z,0.00
2018-01-18T00:06:13.050Z,0.00
2018-01-18T00:07:13.083Z,0.00
2018-01-18T00:08:13.046Z,0.00
2018-01-18T00:09:13.053Z,0.00
2018-01-18T00:10:13.062Z,0.00
2018-01-18T00:11:13.045Z,0.00
2018-01-18T00:12:13.078Z,0.00
2018-01-18T00:13:13.040Z,0.00
2018-01-18T00:14:13.056Z,0.00
2018-01-18T00:15:13.042Z,0.00
2018-01-18T00:16:13.062Z,0.00
2018-01-18T00:17:13.039Z,0.00
2018-01-18T00:18:13.057Z,0.00
2018-01-18T00:19:13.070Z,0.00
2018-01-18T00:20:13.019Z,0.00
2018-01-18T00:21:13.014Z,0.00
2018-01-18T00:22:13.018Z,0.00
2018-01-18T00:23:13.015Z,0.00
2018-01-18T00:24:13.035Z,0.00
2018-01-18T00:25:13.019Z,0.00
2018-01-18T00:26:13.066Z,0.00
2018-01-18T00:27:13.046Z,0.00
2018-01-18T00:28:13.036Z,0.00
2018-01-18T00:29:13.046Z,0.00
2018-01-18T00:30:13.030Z,0.00
2018-01-18T00:31:13.002Z,0.00
2018-01-18T00:32:13.053Z,0.00
2018-01-18T00:33:13.026Z,0.00
2018-01-18T00:34:13.049Z,0.00
2018-01-18T00:35:12.998Z,0.00
2018-01-18T00:36:13.153Z,0.00
2018-01-18T00:37:13.021Z,0.00
2018-01-18T00:38:13.041Z,0.00
2018-01-18T00:39:13.012Z,0.00
2018-01-18T00:40:13.019Z,0.00
2018-01-18T00:41:12.996Z,0.00
2018-01-18T00:42:13.015Z,0.00
2018-01-18T00:43:12.994Z,0.00
2018-01-18T00:44:13.032Z,0.00
2018-01-18T00:45:13.026Z,0.00
2018-01-18T00:46:12.986Z,0.00
2018-01-18T00:47:13.043Z,0.00
2018-01-18T00:48:13.026Z,0.00
2018-01-18T00:49:13.541Z,0.00
2018-01-18T00:50:13.019Z,0.00
2018-01-18T00:51:12.985Z,0.00
2018-01-18T00:52:12.984Z,0.00
2018-01-18T00:53:12.990Z,0.00
2018-01-18T00:54:13.012Z,0.00
2018-01-18T00:55:12.981Z,0.00
2018-01-18T00:56:13.006Z,0.00
2018-01-18T00:57:13.001Z,0.00
2018-01-18T00:58:12.990Z,0.00
2018-01-18T00:59:13.539Z,0.00
2018-01-18T01:00:13.005Z,0.00
2018-01-18T01:01:12.972Z,0.00
2018-01-18T01:02:13.035Z,0.00
2018-01-18T01:03:12.971Z,0.00
2018-01-18T01:04:12.965Z,0.00
2018-01-18T01:05:12.965Z,0.00
2018-01-18T01:06:12.969Z,0.00
2018-01-18T01:07:12.983Z,0.00
2018-01-18T01:08:12.974Z,0.00
2018-01-18T01:09:12.989Z,0.00
2018-01-18T01:10:12.969Z,0.00
2018-01-18T01:11:12.991Z,0.00
2018-01-18T01:12:13.542Z,0.00
2018-01-18T01:13:13.005Z,0.00
2018-01-18T01:14:13.020Z,0.00
2018-01-18T01:15:13.046Z,0.00
2018-01-18T01:16:12.960Z,0.00
2018-01-18T01:17:12.996Z,0.00
2018-01-18T01:18:13.026Z,0.00
2018-01-18T01:19:12.942Z,0.00
2018-01-18T01:20:13.009Z,0.00
2018-01-18T01:21:12.970Z,0.00
2018-01-18T01:22:12.982Z,0.00
2018-01-18T01:23:12.947Z,0.00
2018-01-18T01:24:12.970Z,0.00
2018-01-18T01:25:12.955Z,0.00
2018-01-18T01:26:12.968Z,0.00
2018-01-18T01:27:12.969Z,0.00
2018-01-18T01:28:12.933Z,0.00
2018-01-18T01:29:12.935Z,0.00
2018-01-18T01:30:12.940Z,0.00
2018-01-18T01:31:12.935Z,0.00
2018-01-18T01:32:12.976Z,0.00
2018-01-18T01:33:13.547Z,0.00
2018-01-18T01:34:12.958Z,0.00
2018-01-18T01:35:12.969Z,0.00
2018-01-18T01:36:12.942Z,0.00
2018-01-18T01:37:12.976Z,0.00
2018-01-18T01:38:12.973Z,0.00
2018-01-18T01:39:12.977Z,0.00
2018-01-18T01:40:12.958Z,0.00
2018-01-18T01:41:12.927Z,0.00
2018-01-18T01:42:12.924Z,0.00
2018-01-18T01:43:12.922Z,0.00
2018-01-18T01:44:12.952Z,0.00
2018-01-18T01:45:12.924Z,0.00
2018-01-18T01:46:13.077Z,0.00
2018-01-18T01:47:12.965Z,0.00
2018-01-18T01:48:12.923Z,0.00
2018-01-18T01:49:12.964Z,0.00
2018-01-18T01:50:12.932Z,0.00
2018-01-18T01:51:12.978Z,0.00
2018-01-18T01:52:12.964Z,0.00
2018-01-18T01:53:12.957Z,0.00
2018-01-18T01:54:12.964Z,0.00
2018-01-18T01:55:12.918Z,0.00
2018-01-18T01:56:12.926Z,0.00
2018-01-18T01:57:12.944Z,0.00
2018-01-18T01:58:12.907Z,0.00
2018-01-18T01:59:13.549Z,0.00
2018-01-18T02:00:12.907Z,0.00
2018-01-18T02:01:12.906Z,0.00
2018-01-18T02:02:12.952Z,0.00
2018-01-18T02:03:12.919Z,0.00
2018-01-18T02:04:12.920Z,0.00
2018-01-18T02:05:12.918Z,0.00
2018-01-18T02:06:12.940Z,0.00
2018-01-18T02:07:12.935Z,0.00
2018-01-18T02:08:12.908Z,0.00
2018-01-18T02:09:12.910Z,0.00
2018-01-18T02:10:12.899Z,0.00
2018-01-18T02:11:12.891Z,0.00
2018-01-18T02:12:12.894Z,0.00
2018-01-18T02:13:12.890Z,0.00
2018-01-18T02:14:12.958Z,0.00
2018-01-18T02:15:12.976Z,0.00
2018-01-18T02:16:12.910Z,0.00
2018-01-18T02:17:12.947Z,0.00
2018-01-18T02:18:12.947Z,0.00
2018-01-18T02:19:12.914Z,0.00
2018-01-18T02:20:12.886Z,0.00
2018-01-18T02:21:12.962Z,0.00
2018-01-18T02:22:12.891Z,0.00
2018-01-18T02:23:12.900Z,0.00
2018-01-18T02:24:12.880Z,0.00
2018-01-18T02:25:12.884Z,0.00
2018-01-18T02:26:12.890Z,0.00
2018-01-18T02:27:12.896Z,0.00
2018-01-18T02:28:12.939Z,0.00
2018-01-18T02:29:12.915Z,0.00
2018-01-18T02:30:13.563Z,0.00
2018-01-18T02:31:12.910Z,0.00
2018-01-18T02:32:12.904Z,0.00
2018-01-18T02:33:12.909Z,0.00
2018-01-18T02:34:12.919Z,0.00
2018-01-18T02:35:12.911Z,0.00
2018-01-18T02:36:12.950Z,0.00
2018-01-18T02:37:12.911Z,0.00
2018-01-18T02:38:12.890Z,0.00
2018-01-18T02:39:14.652Z,0.00
2018-01-18T02:40:12.870Z,0.00
2018-01-18T02:41:12.870Z,0.00
2018-01-18T02:42:12.870Z,0.00
2018-01-18T02:43:13.559Z,0.00
2018-01-18T02:44:12.878Z,0.00
2018-01-18T02:45:12.879Z,0.00
2018-01-18T02:46:12.882Z,0.00
2018-01-18T02:47:12.900Z,0.00
2018-01-18T02:48:12.900Z,0.00
2018-01-18T02:49:12.862Z,0.00
2018-01-18T02:50:12.875Z,0.00
2018-01-18T02:51:12.900Z,0.00
2018-01-18T02:52:12.891Z,0.00
2018-01-18T02:53:12.880Z,0.00
2018-01-18T02:54:12.877Z,0.00
2018-01-18T02:55:12.891Z,0.00
2018-01-18T02:56:13.003Z,0.00
2018-01-18T02:57:12.878Z,0.00
2018-01-18T02:58:12.866Z,0.00
2018-01-18T02:59:12.884Z,0.00
2018-01-18T03:00:12.915Z,0.00
2018-01-18T03:01:12.887Z,0.00
2018-01-18T03:02:12.874Z,0.00
2018-01-18T03:03:12.911Z,0.00
2018-01-18T03:04:12.854Z,0.00
2018-01-18T03:05:12.860Z,0.00
2018-01-18T03:06:12.843Z,0.00
2018-01-18T03:07:12.851Z,0.00
2018-01-18T03:08:12.869Z,0.00
2018-01-18T03:09:12.915Z,0.00
2018-01-18T03:10:12.857Z,0.00
2018-01-18T03:11:12.842Z,0.00
2018-01-18T03:12:12.851Z,0.00
2018-01-18T03:13:12.874Z,0.00
2018-01-18T03:14:12.878Z,0.00
2018-01-18T03:15:12.847Z,0.00
2018-01-18T03:16:12.839Z,0.00
2018-01-18T03:17:12.859Z,0.00
2018-01-18T03:18:12.872Z,0.00
2018-01-18T03:19:12.848Z,0.00
2018-01-18T03:20:12.858Z,0.00
2018-01-18T03:21:12.842Z,0.00
2018-01-18T03:22:12.867Z,0.00
2018-01-18T03:23:12.874Z,0.00
2018-01-18T03:24:12.831Z,0.00
2018-01-18T03:25:12.870Z,0.00
2018-01-18T03:26:12.862Z,0.00
2018-01-18T03:27:13.564Z,0.00
2018-01-18T03:28:12.866Z,0.00
2018-01-18T03:29:12.867Z,0.00
2018-01-18T03:30:12.877Z,0.00
2018-01-18T03:31:12.886Z,0.00
2018-01-18T03:32:12.828Z,0.00
2018-01-18T03:33:12.828Z,0.00
2018-01-18T03:34:12.820Z,0.00
2018-01-18T03:35:12.903Z,0.00
2018-01-18T03:36:12.835Z,0.00
2018-01-18T03:37:12.812Z,0.00
2018-01-18T03:38:12.890Z,0.00
2018-01-18T03:39:12.899Z,0.00
2018-01-18T03:40:12.889Z,0.00
2018-01-18T03:41:12.821Z,0.00
2018-01-18T03:42:12.823Z,0.00
2018-01-18T03:43:12.887Z,0.00
2018-01-18T03:44:12.814Z,0.00
2018-01-18T03:45:12.827Z,0.00
2018-01-18T03:46:12.849Z,0.00
2018-01-18T03:47:12.831Z,0.00
2018-01-18T03:48:12.826Z,0.00
2018-01-18T03:49:12.816Z,0.00
2018-01-18T03:50:12.826Z,0.00
2018-01-18T03:51:12.864Z,0.00
2018-01-18T03:52:12.847Z,0.00
2018-01-18T03:53:12.834Z,0.00
2018-01-18T03:54:12.872Z,0.00
2018-01-18T03:55:12.829Z,0.00
2018-01-18T03:56:12.855Z,0.00
2018-01-18T03:57:12.842Z,0.00
2018-01-18T03:58:12.881Z,0.00
2018-01-18T03:59:12.845Z,0.00
2018-01-18T04:00:12.819Z,0.00
2018-01-18T04:01:12.898Z,0.00
2018-01-18T04:02:12.852Z,0.00
2018-01-18T04:03:12.829Z,0.00
2018-01-18T04:04:12.864Z,0.00
2018-01-18T04:05:12.816Z,0.00
2018-01-18T04:06:12.835Z,0.00
2018-01-18T04:07:12.823Z,0.00
2018-01-18T04:08:12.835Z,0.00
2018-01-18T04:09:12.812Z,0.00
2018-01-18T04:10:12.841Z,0.00
2018-01-18T04:11:12.832Z,0.00
2018-01-18T04:12:12.815Z,0.00
2018-01-18T04:13:12.850Z,0.00
2018-01-18T04:14:12.857Z,0.00
2018-01-18T04:15:12.811Z,0.00
2018-01-18T04:16:12.794Z,0.00
2018-01-18T04:17:12.790Z,0.00
2018-01-18T04:18:12.801Z,0.00
2018-01-18T04:19:12.837Z,0.00
2018-01-18T04:20:12.859Z,0.00
2018-01-18T04:21:12.831Z,0.00
2018-01-18T04:22:12.791Z,0.00
2018-01-18T04:23:12.824Z,0.00
2018-01-18T04:24:12.804Z,0.00
2018-01-18T04:25:12.815Z,0.00
2018-01-18T04:26:12.810Z,0.00
2018-01-18T04:27:12.789Z,0.00
2018-01-18T04:28:12.781Z,0.00
2018-01-18T04:29:12.837Z,0.00
2018-01-18T04:30:12.837Z,0.00
2018-01-18T04:31:12.793Z,0.00
2018-01-18T04:32:12.787Z,0.00
2018-01-18T04:33:12.782Z,0.00
2018-01-18T04:34:12.805Z,0.00
2018-01-18T04:35:12.823Z,0.00
2018-01-18T04:36:12.810Z,0.00
2018-01-18T04:37:12.805Z,0.00
2018-01-18T04:38:12.812Z,0.00
2018-01-18T04:39:12.786Z,0.00
2018-01-18T04:40:13.580Z,0.00
2018-01-18T04:41:12.826Z,0.00
2018-01-18T04:42:12.811Z,0.00
2018-01-18T04:43:12.811Z,0.00
2018-01-18T04:44:12.778Z,0.00
2018-01-18T04:45:12.768Z,0.00
2018-01-18T04:46:12.844Z,0.00
2018-01-18T04:47:12.789Z,0.00
2018-01-18T04:48:12.811Z,0.00
2018-01-18T04:49:12.794Z,0.00
2018-01-18T04:50:12.784Z,0.00
2018-01-18T04:51:12.769Z,0.00
2018-01-18T04:52:12.770Z,0.00
2018-01-18T04:53:12.803Z,0.00
2018-01-18T04:54:12.794Z,0.00
2018-01-18T04:55:12.765Z,0.00
2018-01-18T04:56:12.768Z,0.00
2018-01-18T04:57:12.794Z,0.00
2018-01-18T04:58:12.895Z,0.00
2018-01-18T04:59:12.772Z,0.00
2018-01-18T05:00:12.806Z,0.00
2018-01-18T05:01:12.835Z,0.00
2018-01-18T05:02:12.868Z,0.00
2018-01-18T05:03:12.788Z,0.00
2018-01-18T05:04:12.815Z,0.00
2018-01-18T05:05:12.763Z,0.00
2018-01-18T05:06:12.810Z,0.00
2018-01-18T05:07:12.759Z,0.00
2018-01-18T05:08:12.793Z,0.00
2018-01-18T05:09:12.770Z,0.00
2018-01-18T05:10:12.775Z,0.00
2018-01-18T05:11:12.884Z,0.00
2018-01-18T05:12:12.792Z,0.00
2018-01-18T05:13:12.811Z,0.00
2018-01-18T05:14:12.745Z,0.00
2018-01-18T05:15:12.744Z,0.00
2018-01-18T05:16:12.795Z,0.00
2018-01-18T05:17:12.785Z,0.00
2018-01-18T05:18:12.767Z,0.00
2018-01-18T05:19:12.835Z,0.00
2018-01-18T05:20:12.738Z,0.00
2018-01-18T05:21:12.767Z,0.00
2018-01-18T05:22:12.765Z,0.00
2018-01-18T05:23:12.729Z,0.00
2018-01-18T05:24:12.808Z,0.00
2018-01-18T05:25:12.760Z,0.00
2018-01-18T05:26:12.755Z,0.00
2018-01-18T05:27:12.747Z,0.00
2018-01-18T05:28:12.750Z,0.00
2018-01-18T05:29:12.732Z,0.00
2018-01-18T05:30:12.739Z,0.00
2018-01-18T05:31:12.796Z,0.00
2018-01-18T05:32:12.726Z,0.00
2018-01-18T05:33:12.736Z,0.00
2018-01-18T05:34:12.735Z,0.00
2018-01-18T05:35:12.760Z,0.00
2018-01-18T05:36:12.829Z,0.00
2018-01-18T05:37:13.594Z,0.00
2018-01-18T05:38:12.787Z,0.00
2018-01-18T05:39:12.722Z,0.00
2018-01-18T05:40:12.730Z,0.00
2018-01-18T05:41:12.714Z,0.00
2018-01-18T05:42:12.758Z,0.00
2018-01-18T05:43:12.706Z,0.00
2018-01-18T05:44:12.709Z,0.00
2018-01-18T05:45:12.707Z,0.00
2018-01-18T05:46:12.736Z,0.00
2018-01-18T05:47:12.716Z,0.00
2018-01-18T05:48:12.765Z,0.00
2018-01-18T05:49:12.704Z,0.00
2018-01-18T05:50:12.692Z,0.00
2018-01-18T05:51:12.737Z,0.00
2018-01-18T05:52:12.778Z,0.00
2018-01-18T05:53:12.702Z,0.00
2018-01-18T05:54:12.730Z,0.00
2018-01-18T05:55:12.692Z,0.00
2018-01-18T05:56:12.730Z,0.00
2018-01-18T05:57:12.705Z,0.00
2018-01-18T05:58:12.757Z,0.00
2018-01-18T05:59:12.742Z,0.00
2018-01-18T06:00:12.700Z,0.00
2018-01-18T06:01:12.722Z,0.00
2018-01-18T06:02:12.689Z,0.00
2018-01-18T06:03:12.729Z,0.00
2018-01-18T06:04:12.697Z,0.00
2018-01-18T06:05:12.739Z,0.00
2018-01-18T06:06:12.682Z,0.00
2018-01-18T06:07:12.702Z,0.00
2018-01-18T06:08:12.695Z,0.00
2018-01-18T06:09:12.698Z,0.00
2018-01-18T06:10:12.705Z,0.00
2018-01-18T06:11:12.716Z,0.00
2018-01-18T06:12:12.681Z,0.00
2018-01-18T06:13:12.659Z,0.00
2018-01-18T06:14:12.701Z,0.00
2018-01-18T06:15:12.678Z,0.00
2018-01-18T06:16:12.653Z,0.00
2018-01-18T06:17:12.692Z,0.00
2018-01-18T06:18:12.694Z,0.00
2018-01-18T06:19:12.673Z,0.00
2018-01-18T06:20:12.654Z,0.00
2018-01-18T06:21:12.643Z,0.00
2018-01-18T06:22:12.644Z,0.00
2018-01-18T06:23:12.679Z,0.00
2018-01-18T06:24:12.654Z,0.00
2018-01-18T06:25:12.667Z,0.00
2018-01-18T06:26:12.642Z,0.00
2018-01-18T06:27:12.741Z,0.00
2018-01-18T06:28:12.684Z,0.00
2018-01-18T06:29:12.635Z,0.00
2018-01-18T06:30:12.700Z,0.00
2018-01-18T06:31:12.637Z,0.00
2018-01-18T06:32:12.659Z,0.00
2018-01-18T06:33:12.645Z,0.00
2018-01-18T06:34:12.691Z,0.00
2018-01-18T06:35:12.657Z,0.00
2018-01-18T06:36:12.657Z,0.00
2018-01-18T06:37:12.635Z,0.00
2018-01-18T06:38:12.652Z,0.00
2018-01-18T06:39:12.655Z,0.00
2018-01-18T06:40:12.655Z,0.00
2018-01-18T06:41:12.642Z,0.00
2018-01-18T06:42:12.643Z,0.00
2018-01-18T06:43:12.681Z,0.00
2018-01-18T06:44:12.637Z,0.00
2018-01-18T06:45:12.654Z,0.00
2018-01-18T06:46:12.607Z,0.00
2018-01-18T06:47:12.614Z,0.00
2018-01-18T06:48:12.666Z,0.00
2018-01-18T06:49:13.105Z,0.00
2018-01-18T06:50:12.621Z,0.00
2018-01-18T06:51:12.620Z,0.00
2018-01-18T06:52:12.607Z,0.00
2018-01-18T06:53:12.610Z,0.00
2018-01-18T06:54:13.187Z,0.00
2018-01-18T06:55:12.633Z,0.00
2018-01-18T06:56:12.608Z,0.00
2018-01-18T06:57:12.626Z,0.00
2018-01-18T06:58:12.588Z,0.00
2018-01-18T06:59:12.609Z,0.00
2018-01-18T07:00:12.595Z,0.00
2018-01-18T07:01:12.603Z,0.00
2018-01-18T07:02:12.600Z,0.00
2018-01-18T07:03:12.612Z,0.00
2018-01-18T07:04:12.603Z,0.00
2018-01-18T07:05:12.675Z,0.00
2018-01-18T07:06:12.587Z,0.00
2018-01-18T07:07:12.616Z,0.00
2018-01-18T07:08:12.591Z,0.00
2018-01-18T07:09:12.622Z,0.00
2018-01-18T07:10:12.589Z,4.00
2018-01-18T07:11:12.609Z,4.00
2018-01-18T07:12:12.594Z,4.00
2018-01-18T07:13:12.599Z,4.00
2018-01-18T07:14:12.578Z,0.00
2018-01-18T07:15:12.579Z,4.00
2018-01-18T07:16:12.587Z,4.00
2018-01-18T07:17:12.574Z,0.00
2018-01-18T07:18:12.689Z,4.00
2018-01-18T07:19:12.595Z,8.00
2018-01-18T07:20:12.615Z,12.00
2018-01-18T07:21:12.577Z,8.00
2018-01-18T07:22:12.601Z,8.00
2018-01-18T07:23:12.593Z,8.00
2018-01-18T07:24:12.583Z,4.00
2018-01-18T07:25:12.569Z,16.00
2018-01-18T07:26:12.619Z,32.00
2018-01-18T07:27:12.644Z,16.00
2018-01-18T07:28:12.562Z,12.00
2018-01-18T07:29:12.590Z,20.00
2018-01-18T07:30:12.581Z,16.00
2018-01-18T07:31:12.584Z,32.00
2018-01-18T07:32:12.575Z,20.00
2018-01-18T07:33:12.593Z,28.00
2018-01-18T07:34:12.570Z,36.00
2018-01-18T07:35:12.581Z,28.00
2018-01-18T07:36:12.651Z,40.00
2018-01-18T07:37:12.589Z,28.00
2018-01-18T07:38:12.600Z,56.00
2018-01-18T07:39:12.595Z,72.00
2018-01-18T07:40:12.676Z,60.00
2018-01-18T07:41:13.118Z,136.00
2018-01-18T07:42:12.559Z,72.00
2018-01-18T07:43:13.117Z,56.00
2018-01-18T07:44:12.575Z,48.00
2018-01-18T07:45:12.608Z,48.00
2018-01-18T07:46:13.113Z,56.00
2018-01-18T07:47:12.658Z,28.00
2018-01-18T07:48:12.561Z,56.00
2018-01-18T07:49:12.604Z,80.00
2018-01-18T07:50:12.610Z,76.00
2018-01-18T07:51:12.607Z,72.00
2018-01-18T07:52:12.565Z,52.00
2018-01-18T07:53:12.547Z,48.00
2018-01-18T07:54:12.597Z,72.00
2018-01-18T07:55:12.591Z,100.00
2018-01-18T07:56:12.557Z,88.00
2018-01-18T07:57:12.546Z,76.00
2018-01-18T07:58:12.552Z,64.00
2018-01-18T07:59:12.648Z,56.00
2018-01-18T08:00:12.552Z,52.00
2018-01-18T08:01:12.565Z,48.00
2018-01-18T08:02:12.586Z,80.00
2018-01-18T08:03:12.591Z,76.00
2018-01-18T08:04:12.582Z,68.00
2018-01-18T08:05:12.604Z,100.00
2018-01-18T08:06:12.555Z,240.00
2018-01-18T08:07:12.569Z,376.00
2018-01-18T08:08:12.601Z,460.00
2018-01-18T08:09:12.540Z,560.00
2018-01-18T08:10:12.622Z,388.00
2018-01-18T08:11:12.636Z,676.00
2018-01-18T08:12:13.118Z,656.00
2018-01-18T08:13:12.579Z,888.00
2018-01-18T08:14:12.559Z,1268.00
2018-01-18T08:15:12.639Z,1476.00
2018-01-18T08:16:12.591Z,1508.00
2018-01-18T08:17:13.656Z,1424.00
2018-01-18T08:18:13.052Z,560.00
2018-01-18T08:19:12.601Z,848.00
2018-01-18T08:20:12.914Z,772.00
2018-01-18T08:21:12.556Z,1496.00
2018-01-18T08:22:12.583Z,1356.00
2018-01-18T08:23:12.590Z,1548.00
2018-01-18T08:24:12.545Z,972.00
2018-01-18T08:25:12.558Z,968.00
2018-01-18T08:26:12.555Z,672.00
2018-01-18T08:27:12.573Z,616.00
2018-01-18T08:28:12.571Z,964.00
2018-01-18T08:29:12.630Z,748.00
2018-01-18T08:30:13.133Z,816.00
2018-01-18T08:31:13.127Z,1132.00
2018-01-18T08:32:12.598Z,928.00
2018-01-18T08:33:12.609Z,1340.00
2018-01-18T08:34:12.579Z,1384.00
2018-01-18T08:35:12.562Z,784.00
2018-01-18T08:36:12.641Z,564.00
2018-01-18T08:37:13.137Z,612.00
2018-01-18T08:38:12.567Z,1004.00
2018-01-18T08:39:12.564Z,1220.00
2018-01-18T08:40:12.573Z,2116.00
2018-01-18T08:41:12.559Z,1612.00
2018-01-18T08:42:12.567Z,1304.00
2018-01-18T08:43:12.551Z,1100.00
2018-01-18T08:44:12.602Z,916.00
2018-01-18T08:45:12.574Z,792.00
2018-01-18T08:46:12.590Z,664.00
2018-01-18T08:47:12.582Z,620.00
2018-01-18T08:48:12.581Z,488.00
2018-01-18T08:49:13.244Z,364.00
2018-01-18T08:50:13.217Z,432.00
2018-01-18T08:51:12.739Z,284.00
2018-01-18T08:52:12.550Z,472.00
2018-01-18T08:53:13.250Z,796.00
2018-01-18T08:54:12.645Z,764.00
2018-01-18T08:55:12.553Z,396.00
2018-01-18T08:56:13.135Z,412.00
2018-01-18T08:57:12.560Z,320.00
2018-01-18T08:58:12.575Z,304.00
2018-01-18T08:59:12.564Z,428.00
2018-01-18T09:00:13.211Z,648.00
2018-01-18T09:01:12.586Z,604.00
2018-01-18T09:02:12.571Z,500.00
2018-01-18T09:03:12.571Z,532.00
2018-01-18T09:04:12.910Z,584.00
2018-01-18T09:05:12.594Z,704.00
2018-01-18T09:06:12.565Z,784.00
2018-01-18T09:07:12.626Z,1432.00
2018-01-18T09:08:12.570Z,1336.00
2018-01-18T09:09:12.578Z,1120.00
2018-01-18T09:10:12.560Z,748.00
2018-01-18T09:11:12.569Z,412.00
2018-01-18T09:12:12.747Z,312.00
2018-01-18T09:13:12.611Z,628.00
2018-01-18T09:14:12.570Z,700.00
2018-01-18T09:15:12.576Z,928.00
2018-01-18T09:16:12.579Z,1496.00
2018-01-18T09:17:12.560Z,1284.00
2018-01-18T09:18:12.569Z,1900.00
2018-01-18T09:19:12.651Z,2332.00
2018-01-18T09:20:12.590Z,2324.00
2018-01-18T09:21:12.594Z,1884.00
2018-01-18T09:22:12.677Z,1484.00
2018-01-18T09:23:12.630Z,3084.00
2018-01-18T09:24:12.629Z,2248.00
2018-01-18T09:25:12.591Z,2204.00
2018-01-18T09:26:12.596Z,4336.00
2018-01-18T09:27:13.655Z,2568.00
2018-01-18T09:28:12.740Z,2552.00
2018-01-18T09:29:12.617Z,2604.00
2018-01-18T09:30:12.630Z,1616.00
2018-01-18T09:31:12.579Z,1548.00
2018-01-18T09:32:12.624Z,2932.00
2018-01-18T09:33:12.579Z,2600.00
2018-01-18T09:34:12.581Z,2272.00
2018-01-18T09:35:12.616Z,1496.00
2018-01-18T09:36:12.647Z,1304.00
2018-01-18T09:37:12.593Z,1972.00
2018-01-18T09:38:12.581Z,2392.00
2018-01-18T09:39:12.621Z,1756.00
2018-01-18T09:40:12.663Z,1764.00
2018-01-18T09:41:12.606Z,2636.00
2018-01-18T09:42:12.630Z,4308.00
2018-01-18T09:43:12.665Z,5048.00
2018-01-18T09:44:12.644Z,5404.00
2018-01-18T09:45:12.584Z,3724.00
2018-01-18T09:46:12.652Z,2656.00
2018-01-18T09:47:12.594Z,1744.00
2018-01-18T09:48:12.599Z,1472.00
2018-01-18T09:49:12.618Z,1768.00
2018-01-18T09:50:12.894Z,1436.00
2018-01-18T09:51:12.601Z,1000.00
2018-01-18T09:52:12.591Z,3108.00
2018-01-18T09:53:12.588Z,932.00
2018-01-18T09:54:12.636Z,984.00
2018-01-18T09:55:13.147Z,812.00
2018-01-18T09:56:13.223Z,1264.00
2018-01-18T09:57:12.658Z,1180.00
2018-01-18T09:58:12.727Z,688.00
2018-01-18T09:59:12.609Z,1296.00
2018-01-18T10:00:12.651Z,1360.00
2018-01-18T10:01:12.699Z,988.00
2018-01-18T10:02:13.241Z,776.00
2018-01-18T10:03:12.670Z,924.00
2018-01-18T10:04:12.644Z,916.00
2018-01-18T10:05:12.631Z,2176.00
2018-01-18T10:06:12.658Z,1372.00
2018-01-18T10:07:12.722Z,1036.00
2018-01-18T10:08:15.357Z,1116.00
2018-01-18T10:09:12.624Z,732.00
2018-01-18T10:10:13.148Z,536.00
2018-01-18T10:11:12.662Z,552.00
2018-01-18T10:12:12.776Z,1012.00
2018-01-18T10:13:15.269Z,1056.00
2018-01-18T10:14:12.795Z,1016.00
2018-01-18T10:15:12.721Z,1532.00
2018-01-18T10:16:12.733Z,732.00
2018-01-18T10:17:12.695Z,1424.00
2018-01-18T10:18:12.763Z,804.00
2018-01-18T10:19:12.620Z,660.00
2018-01-18T10:20:12.643Z,1532.00
2018-01-18T10:21:12.653Z,2096.00
2018-01-18T10:22:12.644Z,2944.00
2018-01-18T10:23:12.667Z,1596.00
2018-01-18T10:24:12.617Z,1972.00
2018-01-18T10:25:12.647Z,1108.00
2018-01-18T10:26:12.728Z,1664.00
2018-01-18T10:27:13.115Z,1496.00
2018-01-18T10:28:12.865Z,1876.00
2018-01-18T10:29:12.664Z,1060.00
2018-01-18T10:30:12.659Z,1020.00
2018-01-18T10:32:14.281Z,1328.00
2018-01-18T10:33:13.464Z,984.00
2018-01-18T10:34:12.966Z,1128.00
2018-01-18T10:35:12.927Z,2152.00
2018-01-18T10:36:12.958Z,2484.00
2018-01-18T10:37:13.092Z,2624.00
2018-01-18T10:38:34.011Z,2296.00
2018-01-18T10:39:12.920Z,2512.00
2018-01-18T10:40:12.944Z,1084.00
2018-01-18T10:41:12.990Z,1552.00
2018-01-18T10:42:12.953Z,1376.00
2018-01-18T10:43:17.733Z,1332.00
2018-01-18T10:44:34.051Z,1336.00
2018-01-18T10:45:13.037Z,1480.00
2018-01-18T10:46:12.998Z,1348.00
2018-01-18T10:47:14.239Z,1556.00
2018-01-18T10:48:13.037Z,1084.00
2018-01-18T10:49:12.983Z,696.00
2018-01-18T10:50:33.995Z,1008.00
2018-01-18T10:51:12.979Z,924.00
2018-01-18T10:52:13.154Z,780.00
2018-01-18T10:53:13.009Z,1200.00
2018-01-18T10:54:12.963Z,968.00
2018-01-18T10:55:13.714Z,836.00
2018-01-18T10:56:34.082Z,936.00
2018-01-18T10:57:13.662Z,1308.00
2018-01-18T10:58:13.004Z,952.00
2018-01-18T10:59:13.105Z,1200.00
2018-01-18T11:00:14.082Z,1112.00
2018-01-18T11:01:13.360Z,1284.00
2018-01-18T11:03:47.212Z,1588.00
2018-01-18T11:04:44.857Z,1036.00
2018-01-18T11:05:44.918Z,784.00
2018-01-18T11:06:45.192Z,924.00
2018-01-18T11:07:45.233Z,972.00
2018-01-18T11:08:44.840Z,1124.00
2018-01-18T11:09:44.852Z,964.00
2018-01-18T11:10:44.777Z,720.00
2018-01-18T11:11:44.831Z,1024.00
2018-01-18T11:12:44.764Z,1148.00
2018-01-18T11:13:44.844Z,1036.00
2018-01-18T11:14:44.816Z,972.00
2018-01-18T11:15:44.798Z,1268.00
2018-01-18T11:16:44.772Z,1048.00
2018-01-18T11:17:44.776Z,928.00
2018-01-18T11:18:44.861Z,1144.00
2018-01-18T11:19:44.780Z,1228.00
2018-01-18T11:20:44.786Z,916.00
2018-01-18T11:21:44.954Z,1080.00
2018-01-18T11:22:44.761Z,932.00
2018-01-18T11:23:44.784Z,1092.00
2018-01-18T11:24:44.781Z,1068.00
2018-01-18T11:25:44.875Z,1236.00
2018-01-18T11:26:44.969Z,1232.00
2018-01-18T11:27:44.825Z,1020.00
2018-01-18T11:28:44.788Z,980.00
2018-01-18T11:29:44.815Z,1052.00
2018-01-18T11:30:44.915Z,1284.00
2018-01-18T11:31:45.263Z,948.00
2018-01-18T11:32:45.992Z,1000.00
2018-01-18T11:33:44.891Z,1284.00
2018-01-18T11:34:44.786Z,1280.00
2018-01-18T11:35:44.800Z,1044.00
2018-01-18T11:36:44.828Z,1312.00
2018-01-18T11:37:44.742Z,1756.00
2018-01-18T11:38:44.745Z,1276.00
2018-01-18T11:39:44.755Z,1312.00
2018-01-18T11:40:44.744Z,2036.00
2018-01-18T11:41:44.823Z,1872.00
2018-01-18T11:42:44.796Z,1132.00
2018-01-18T11:43:44.748Z,1796.00
2018-01-18T11:44:44.755Z,1504.00
2018-01-18T11:45:44.755Z,1960.00
2018-01-18T11:46:44.753Z,1448.00
2018-01-18T11:47:44.830Z,1660.00
2018-01-18T11:48:44.778Z,1312.00
2018-01-18T11:49:44.771Z,2084.00
2018-01-18T11:50:44.751Z,2192.00
2018-01-18T11:51:44.756Z,2312.00
2018-01-18T11:52:44.822Z,2416.00
2018-01-18T11:53:44.772Z,2284.00
2018-01-18T11:54:44.763Z,2332.00
2018-01-18T11:55:44.760Z,2168.00
2018-01-18T11:56:44.731Z,2428.00
2018-01-18T11:57:44.769Z,2932.00
2018-01-18T11:58:44.733Z,2488.00
2018-01-18T11:59:44.748Z,2688.00
2018-01-18T12:00:44.757Z,2236.00
2018-01-18T12:01:44.754Z,2616.00
2018-01-18T12:02:45.280Z,2640.00
2018-01-18T12:03:44.726Z,2264.00
2018-01-18T12:04:44.715Z,1768.00
2018-01-18T12:05:44.790Z,2400.00
2018-01-18T12:06:44.734Z,1744.00
2018-01-18T12:07:45.279Z,2060.00
2018-01-18T12:08:44.775Z,2332.00
2018-01-18T12:09:44.871Z,2264.00
2018-01-18T12:10:44.829Z,2128.00
2018-01-18T12:11:44.768Z,1508.00
2018-01-18T12:12:44.715Z,1640.00
2018-01-18T12:13:44.758Z,2228.00
2018-01-18T12:14:44.797Z,1456.00
2018-01-18T12:15:44.847Z,2668.00
2018-01-18T12:16:44.730Z,2280.00
2018-01-18T12:17:44.731Z,2000.00
2018-01-18T12:18:44.819Z,1988.00
2018-01-18T12:19:44.745Z,2240.00
2018-01-18T12:20:44.819Z,1876.00
2018-01-18T12:21:44.749Z,3176.00
2018-01-18T12:22:44.729Z,1844.00
2018-01-18T12:23:44.754Z,1828.00
2018-01-18T12:24:44.792Z,2620.00
2018-01-18T12:25:44.895Z,1548.00
2018-01-18T12:26:44.793Z,1584.00
2018-01-18T12:27:44.737Z,1616.00
2018-01-18T12:28:44.800Z,2288.00
2018-01-18T12:29:44.709Z,2636.00
2018-01-18T12:30:44.897Z,2300.00
2018-01-18T12:31:45.012Z,1484.00
2018-01-18T12:32:44.737Z,1756.00
2018-01-18T12:33:44.820Z,2480.00
2018-01-18T12:34:44.841Z,2792.00
2018-01-18T12:35:45.364Z,2640.00
2018-01-18T12:36:44.747Z,2288.00
2018-01-18T12:37:44.815Z,2460.00
2018-01-18T12:38:44.748Z,2048.00
2018-01-18T12:39:44.788Z,2188.00
2018-01-18T12:40:44.886Z,2396.00
2018-01-18T12:41:44.772Z,1884.00
2018-01-18T12:42:44.884Z,3384.00
2018-01-18T12:43:51.626Z,2556.00
2018-01-18T12:45:45.958Z,1380.00
2018-01-18T12:46:44.940Z,2788.00
2018-01-18T12:47:44.848Z,1748.00
2018-01-18T12:48:44.708Z,2596.00
2018-01-18T12:49:44.816Z,2204.00
2018-01-18T12:50:44.961Z,2120.00
2018-01-18T12:51:44.726Z,2368.00
2018-01-18T12:52:44.882Z,2040.00
2018-01-18T12:53:45.307Z,2304.00
2018-01-18T12:54:45.715Z,2668.00